createdAt,value
2019-02-07T00:00:56.586Z,39.00
2019-02-07T00:03:27.744Z,37.20
2019-02-07T00:05:57.140Z,33.93
2019-02-07T00:08:26.512Z,48.10
2019-02-07T00:10:55.973Z,29.73
2019-02-07T00:13:25.276Z,31.40
2019-02-07T00:15:54.592Z,30.43
2019-02-07T00:18:23.912Z,29.47
2019-02-07T00:20:53.204Z,28.50
2019-02-07T00:23:22.476Z,30.70
2019-02-07T00:25:51.831Z,32.73
2019-02-07T00:28:21.208Z,32.10
2019-02-07T00:30:50.472Z,33.00
2019-02-07T00:33:19.848Z,31.90
2019-02-07T00:35:49.147Z,32.57
2019-02-07T00:38:18.471Z,32.63
2019-02-07T00:40:47.799Z,32.30
2019-02-07T00:43:17.059Z,45.53
2019-02-07T00:45:46.467Z,41.03
2019-02-07T00:48:15.771Z,29.77
2019-02-07T00:50:45.155Z,30.63
2019-02-07T00:53:14.471Z,29.27
2019-02-07T00:55:43.775Z,32.73
2019-02-07T00:58:13.159Z,31.43
2019-02-07T01:00:42.535Z,30.00
2019-02-07T01:03:11.891Z,28.60
2019-02-07T01:05:41.447Z,32.67
2019-02-07T01:08:10.939Z,33.10
2019-02-07T01:10:40.404Z,31.77
2019-02-07T01:13:09.883Z,29.73
2019-02-07T01:15:39.359Z,29.30
2019-02-07T01:18:08.919Z,30.53
2019-02-07T01:20:38.814Z,32.90
2019-02-07T01:23:08.094Z,32.53
2019-02-07T01:25:37.431Z,30.73
2019-02-07T01:28:06.746Z,31.97
2019-02-07T01:30:36.082Z,32.60
2019-02-07T01:33:05.344Z,30.87
2019-02-07T01:35:35.043Z,31.63
2019-02-07T01:38:04.318Z,30.13
2019-02-07T01:40:33.802Z,27.17
2019-02-07T01:43:03.071Z,27.80
2019-02-07T01:45:32.362Z,29.93
2019-02-07T01:48:01.618Z,32.70
2019-02-07T01:50:31.219Z,29.27
2019-02-07T01:53:00.875Z,29.87
2019-02-07T01:55:30.474Z,29.20
2019-02-07T01:57:59.838Z,27.47
2019-02-07T02:00:29.881Z,26.87
2019-02-07T02:02:59.202Z,27.43
2019-02-07T02:05:28.750Z,27.93
2019-02-07T02:07:58.115Z,28.83
2019-02-07T02:10:28.058Z,29.27
2019-02-07T02:12:57.546Z,29.97
2019-02-07T02:15:27.318Z,29.87
2019-02-07T02:17:56.601Z,31.03
2019-02-07T02:20:27.253Z,27.73
2019-02-07T02:22:56.584Z,28.87
2019-02-07T02:25:25.981Z,31.97
2019-02-07T02:27:55.321Z,30.30
2019-02-07T02:30:26.597Z,30.70
2019-02-07T02:32:55.933Z,27.83
2019-02-07T02:35:25.497Z,29.23
2019-02-07T02:37:54.753Z,26.37
2019-02-07T02:40:24.157Z,27.80
2019-02-07T02:42:53.421Z,26.80
2019-02-07T02:45:23.534Z,29.40
2019-02-07T02:47:53.758Z,30.03
2019-02-07T02:50:23.005Z,29.37
2019-02-07T02:52:52.403Z,27.60
2019-02-07T02:55:33.277Z,29.00
2019-02-07T02:58:02.653Z,30.23
2019-02-07T03:01:00.506Z,31.87
2019-02-07T03:03:48.253Z,30.00
2019-02-07T03:06:51.552Z,31.07
2019-02-07T03:09:39.545Z,30.27
2019-02-07T03:12:30.949Z,30.97
2019-02-07T03:15:14.841Z,27.33
2019-02-07T03:18:08.909Z,27.70
2019-02-07T03:20:47.776Z,28.20
2019-02-07T03:23:51.801Z,29.40
2019-02-07T03:26:43.044Z,27.53
2019-02-07T03:29:21.068Z,28.70
2019-02-07T03:32:10.610Z,30.30
2019-02-07T03:34:58.937Z,30.50
2019-02-07T03:37:51.856Z,31.13
2019-02-07T03:40:38.636Z,29.07
2019-02-07T03:43:42.252Z,30.27
2019-02-07T03:46:30.776Z,30.70
2019-02-07T03:49:28.592Z,31.23
2019-02-07T03:52:20.132Z,28.33
2019-02-07T03:55:07.352Z,29.37
2019-02-07T03:57:59.944Z,30.63
2019-02-07T04:00:47.196Z,29.67
2019-02-07T04:03:35.516Z,29.97
2019-02-07T04:06:14.148Z,30.33
2019-02-07T04:08:59.368Z,36.50
2019-02-07T04:11:47.724Z,32.70
2019-02-07T04:14:39.031Z,34.77
2019-02-07T04:17:20.029Z,31.10
2019-02-07T04:20:11.636Z,33.27
2019-02-07T04:23:02.787Z,33.60
2019-02-07T04:26:00.701Z,30.50
2019-02-07T04:28:47.652Z,30.63
2019-02-07T04:31:29.101Z,30.07
2019-02-07T04:34:20.216Z,30.87
2019-02-07T04:37:17.608Z,30.27
2019-02-07T04:39:57.807Z,30.07
2019-02-07T04:42:37.755Z,29.10
2019-02-07T04:45:41.828Z,28.00
2019-02-07T04:48:28.968Z,30.57
2019-02-07T04:51:23.047Z,31.47
2019-02-07T04:54:06.103Z,31.90
2019-02-07T04:56:46.879Z,30.37
2019-02-07T04:59:35.371Z,29.00
2019-02-07T05:02:42.453Z,27.50
2019-02-07T05:05:32.724Z,32.37
2019-02-07T05:08:10.552Z,30.17
2019-02-07T05:10:57.511Z,31.23
2019-02-07T05:13:44.506Z,32.93
2019-02-07T05:16:39.319Z,52.47
2019-02-07T05:19:18.460Z,39.37
2019-02-07T05:22:06.999Z,42.80
2019-02-07T05:25:01.212Z,40.53
2019-02-07T05:27:55.603Z,37.63
2019-02-07T05:30:55.726Z,36.77
2019-02-07T05:33:42.671Z,49.30
2019-02-07T05:36:29.743Z,53.37
2019-02-07T05:39:20.831Z,58.07
2019-02-07T05:42:01.729Z,106.07
2019-02-07T05:44:41.742Z,63.73
2019-02-07T05:47:30.062Z,46.13
2019-02-07T05:50:28.771Z,38.80
2019-02-07T05:53:18.230Z,40.60
2019-02-07T05:56:04.963Z,40.10
2019-02-07T05:59:02.388Z,36.13
2019-02-07T06:02:02.658Z,38.37
2019-02-07T06:05:06.321Z,37.80
2019-02-07T06:07:54.654Z,42.30
2019-02-07T06:10:34.339Z,44.00
2019-02-07T06:13:28.349Z,41.00
2019-02-07T06:16:22.078Z,44.10
2019-02-07T06:19:08.298Z,43.53
2019-02-07T06:21:54.862Z,43.63
2019-02-07T06:24:44.126Z,44.83
2019-02-07T06:27:32.009Z,47.77
2019-02-07T06:30:22.502Z,42.93
2019-02-07T06:33:09.298Z,39.73
2019-02-07T06:35:55.766Z,38.53
2019-02-07T06:38:36.470Z,36.40
2019-02-07T06:41:15.378Z,36.47
2019-02-07T06:43:54.490Z,43.23
2019-02-07T06:46:51.509Z,61.17
2019-02-07T06:49:42.145Z,36.30
2019-02-07T06:52:30.037Z,46.40
2019-02-07T06:55:16.973Z,40.40
2019-02-07T06:58:19.901Z,53.73
2019-02-07T07:01:10.349Z,59.87
2019-02-07T07:03:57.756Z,50.37
2019-02-07T07:06:48.785Z,53.87
2019-02-07T07:09:33.453Z,44.60
2019-02-07T07:12:23.002Z,51.47
2019-02-07T07:15:04.097Z,47.97
2019-02-07T07:18:04.413Z,48.80
2019-02-07T07:20:49.413Z,37.77
2019-02-07T07:23:40.326Z,39.53
2019-02-07T07:26:33.841Z,40.17
2019-02-07T07:29:30.953Z,42.33
2019-02-07T07:32:17.740Z,39.83
2019-02-07T07:35:05.657Z,43.80
2019-02-07T07:37:53.566Z,88.13
2019-02-07T07:40:32.872Z,69.20
2019-02-07T07:43:30.473Z,42.60
2019-02-07T07:46:36.649Z,76.97
2019-02-07T07:49:24.600Z,44.73
2019-02-07T07:52:12.500Z,37.27
2019-02-07T07:55:03.528Z,58.67
2019-02-07T07:57:51.444Z,140.87
2019-02-07T08:00:54.160Z,70.90
2019-02-07T08:03:38.288Z,50.43
2019-02-07T08:06:15.948Z,50.57
2019-02-07T08:09:08.981Z,66.07
2019-02-07T08:12:01.977Z,50.67
2019-02-07T08:15:02.028Z,40.10
2019-02-07T08:17:48.873Z,47.00
2019-02-07T08:20:39.405Z,52.13
2019-02-07T08:23:30.116Z,49.93
2019-02-07T08:26:11.352Z,51.60
2019-02-07T08:29:02.040Z,39.37
2019-02-07T08:31:50.667Z,42.70
2019-02-07T08:34:41.219Z,54.70
2019-02-07T08:37:27.527Z,42.77
2019-02-07T08:40:15.428Z,48.27
2019-02-07T08:43:02.536Z,44.83
2019-02-07T08:45:59.404Z,47.03
2019-02-07T08:48:43.867Z,41.57
2019-02-07T08:51:36.283Z,44.63
2019-02-07T08:54:33.326Z,37.67
2019-02-07T08:57:36.539Z,46.63
2019-02-07T09:00:27.251Z,52.80
2019-02-07T09:03:14.379Z,49.23
2019-02-07T09:06:01.487Z,45.90
2019-02-07T09:08:51.296Z,46.50
2019-02-07T09:11:32.691Z,45.70
2019-02-07T09:14:12.075Z,35.37
2019-02-07T09:17:00.395Z,38.90
2019-02-07T09:19:50.391Z,39.37
2019-02-07T09:22:38.395Z,37.90
2019-02-07T09:25:39.043Z,41.97
2019-02-07T09:28:27.487Z,37.90
2019-02-07T09:31:21.855Z,35.53
2019-02-07T09:34:15.975Z,35.30
2019-02-07T09:37:02.862Z,35.03
2019-02-07T09:39:39.231Z,31.57
2019-02-07T09:42:39.438Z,33.70
2019-02-07T09:45:34.930Z,34.27
2019-02-07T09:48:25.887Z,53.67
2019-02-07T09:51:01.806Z,55.63
2019-02-07T09:53:52.944Z,40.40
2019-02-07T09:56:50.016Z,43.83
2019-02-07T09:59:37.366Z,37.77
2019-02-07T10:02:25.711Z,37.07
2019-02-07T10:05:04.666Z,42.47
2019-02-07T10:07:49.470Z,35.70
2019-02-07T10:10:33.686Z,36.43
2019-02-07T10:13:24.698Z,32.83
2019-02-07T10:16:06.612Z,35.67
2019-02-07T10:18:53.778Z,35.80
2019-02-07T10:21:44.842Z,36.33
2019-02-07T10:24:24.550Z,32.77
2019-02-07T10:27:11.555Z,32.73
2019-02-07T10:29:58.286Z,30.10
2019-02-07T10:32:55.642Z,32.17
2019-02-07T10:35:36.750Z,33.73
2019-02-07T10:38:23.820Z,29.23
2019-02-07T10:41:15.250Z,52.03
2019-02-07T10:43:58.086Z,55.77
2019-02-07T10:46:44.829Z,51.17
2019-02-07T10:49:25.013Z,29.40
2019-02-07T10:52:11.793Z,55.20
2019-02-07T10:54:58.574Z,34.03
2019-02-07T10:57:49.785Z,42.53
2019-02-07T11:00:37.995Z,32.50
2019-02-07T11:03:35.630Z,33.30
2019-02-07T11:06:24.561Z,31.30
2019-02-07T11:09:15.725Z,44.80
2019-02-07T11:12:16.685Z,39.77
2019-02-07T11:15:07.753Z,47.60
2019-02-07T11:17:58.857Z,61.30
2019-02-07T11:20:46.253Z,46.03
2019-02-07T11:23:52.909Z,34.00
2019-02-07T11:26:37.989Z,36.43
2019-02-07T11:29:35.617Z,38.87
2019-02-07T11:32:24.040Z,42.57
2019-02-07T11:35:11.157Z,41.10
2019-02-07T11:38:05.097Z,39.00
2019-02-07T11:40:54.146Z,35.50
2019-02-07T11:43:33.121Z,40.93
2019-02-07T11:46:27.039Z,38.93
2019-02-07T11:49:27.724Z,44.30
2019-02-07T11:52:15.064Z,64.70
2019-02-07T11:55:18.709Z,37.67
2019-02-07T11:58:07.107Z,42.40
2019-02-07T12:00:55.436Z,40.63
2019-02-07T12:03:42.176Z,42.83
2019-02-07T12:06:20.156Z,39.63
2019-02-07T12:08:57.328Z,44.37
2019-02-07T12:11:51.749Z,51.93
2019-02-07T12:14:40.616Z,45.70
2019-02-07T12:17:27.764Z,38.30
2019-02-07T12:20:11.900Z,40.30
2019-02-07T12:22:51.096Z,39.80
2019-02-07T12:25:39.439Z,40.67
2019-02-07T12:28:42.696Z,43.43
2019-02-07T12:31:37.128Z,43.30
2019-02-07T12:34:31.433Z,41.07
2019-02-07T12:37:19.731Z,44.20
2019-02-07T12:40:19.768Z,45.10
2019-02-07T12:43:06.990Z,45.37
2019-02-07T12:45:53.166Z,48.77
2019-02-07T12:48:41.486Z,44.80
2019-02-07T12:51:28.411Z,52.27
2019-02-07T12:54:16.763Z,51.60
2019-02-07T12:56:52.332Z,54.37
2019-02-07T12:59:43.227Z,46.50
2019-02-07T13:02:31.016Z,45.20
2019-02-07T13:05:18.451Z,46.50
2019-02-07T13:08:02.320Z,49.33
2019-02-07T13:11:09.002Z,46.13
2019-02-07T13:13:51.487Z,47.10
2019-02-07T13:16:58.103Z,44.13
2019-02-07T13:19:45.131Z,45.37
2019-02-07T13:22:32.216Z,47.47
2019-02-07T13:25:20.553Z,46.77
2019-02-07T13:28:23.815Z,46.90
2019-02-07T13:31:27.412Z,48.70
2019-02-07T13:34:22.320Z,48.20
2019-02-07T13:37:00.655Z,46.47
2019-02-07T13:40:04.115Z,50.37
2019-02-07T13:42:50.945Z,50.87
2019-02-07T13:45:39.283Z,55.93
2019-02-07T13:48:29.091Z,48.53
2019-02-07T13:51:16.078Z,48.53
2019-02-07T13:53:51.346Z,51.10
2019-02-07T13:56:36.443Z,51.43
2019-02-07T13:59:27.776Z,48.50
2019-02-07T14:02:16.066Z,50.03
2019-02-07T14:05:16.222Z,46.93
2019-02-07T14:08:13.211Z,46.70
2019-02-07T14:11:00.602Z,48.27
2019-02-07T14:13:57.761Z,48.03
2019-02-07T14:17:04.350Z,46.30
2019-02-07T14:20:02.987Z,66.87
2019-02-07T14:22:41.485Z,112.10
2019-02-07T14:25:42.138Z,89.33
2019-02-07T14:28:19.094Z,87.03
2019-02-07T14:31:10.470Z,76.97
2019-02-07T14:34:04.777Z,54.33
2019-02-07T14:36:48.497Z,127.77
2019-02-07T14:39:35.706Z,71.37
2019-02-07T14:42:29.797Z,54.63
2019-02-07T14:45:36.705Z,65.00
2019-02-07T14:48:06.029Z,62.93
2019-02-07T14:50:35.324Z,57.70
2019-02-07T14:53:04.930Z,50.10
2019-02-07T14:55:34.313Z,55.10
2019-02-07T14:58:03.750Z,60.13
2019-02-07T15:00:33.033Z,59.77
2019-02-07T15:03:02.362Z,62.47
2019-02-07T15:05:31.651Z,53.27
2019-02-07T15:08:01.348Z,76.80
2019-02-07T15:10:30.693Z,65.80
2019-02-07T15:13:01.292Z,73.67
2019-02-07T15:15:31.113Z,90.27
2019-02-07T15:18:00.361Z,73.30
2019-02-07T15:20:29.745Z,70.80
2019-02-07T15:22:59.449Z,70.07
2019-02-07T15:25:28.757Z,66.20
2019-02-07T15:27:58.034Z,57.03
2019-02-07T15:30:27.349Z,56.77
2019-02-07T15:32:56.629Z,56.37
2019-02-07T15:35:29.428Z,64.07
2019-02-07T15:37:59.000Z,59.63
2019-02-07T15:40:28.389Z,65.23
2019-02-07T15:42:58.086Z,92.90
2019-02-07T15:45:27.796Z,86.07
2019-02-07T15:47:57.989Z,64.13
2019-02-07T15:50:37.720Z,73.50
2019-02-07T15:53:00.173Z,99.50
2019-02-07T15:55:29.572Z,171.47
2019-02-07T15:57:59.056Z,129.50
2019-02-07T16:01:02.644Z,90.67
2019-02-07T16:03:37.716Z,198.73
2019-02-07T16:06:07.128Z,75.77
2019-02-07T16:08:36.424Z,67.97
2019-02-07T16:11:07.013Z,56.67
2019-02-07T16:13:36.626Z,67.03
2019-02-07T16:16:05.977Z,48.00
2019-02-07T16:18:35.304Z,66.40
2019-02-07T16:21:04.680Z,66.33
2019-02-07T16:23:34.057Z,60.97
2019-02-07T16:26:03.360Z,49.47
2019-02-07T16:28:32.910Z,46.27
2019-02-07T16:31:02.316Z,54.70
2019-02-07T16:33:31.591Z,48.07
2019-02-07T16:36:00.931Z,54.53
2019-02-07T16:38:30.304Z,62.00
2019-02-07T16:40:59.608Z,74.00
2019-02-07T16:43:28.995Z,65.50
2019-02-07T16:45:58.260Z,155.43
2019-02-07T16:48:27.671Z,175.67
2019-02-07T16:51:00.208Z,76.93
2019-02-07T16:53:27.953Z,108.47
2019-02-07T16:55:57.297Z,75.40
2019-02-07T16:58:26.611Z,111.23
2019-02-07T17:00:55.948Z,56.50
2019-02-07T17:03:25.568Z,47.80
2019-02-07T17:05:54.943Z,43.50
2019-02-07T17:08:24.239Z,53.10
2019-02-07T17:10:53.795Z,47.70
2019-02-07T17:13:23.067Z,70.47
2019-02-07T17:15:52.471Z,52.17
2019-02-07T17:18:21.819Z,63.73
2019-02-07T17:20:51.247Z,70.13
2019-02-07T17:23:20.548Z,84.27
2019-02-07T17:25:49.967Z,101.27
2019-02-07T17:28:19.229Z,77.37
2019-02-07T17:30:48.590Z,59.13
2019-02-07T17:33:17.974Z,52.87
2019-02-07T17:35:49.949Z,86.57
2019-02-07T17:38:18.312Z,66.17
2019-02-07T17:40:47.582Z,56.13
2019-02-07T17:43:16.900Z,59.37
2019-02-07T17:45:46.254Z,96.90
2019-02-07T17:48:15.546Z,96.37
2019-02-07T17:50:44.858Z,59.57
2019-02-07T17:53:14.318Z,74.17
2019-02-07T17:55:43.614Z,73.53
2019-02-07T17:58:12.890Z,61.70
2019-02-07T18:01:02.204Z,60.70
2019-02-07T18:03:31.894Z,53.33
2019-02-07T18:06:01.160Z,41.57
2019-02-07T18:08:30.946Z,43.43
2019-02-07T18:11:00.203Z,44.90
2019-02-07T18:13:29.819Z,92.03
2019-02-07T18:15:59.598Z,60.33
2019-02-07T18:18:29.062Z,73.57
2019-02-07T18:20:58.338Z,56.17
2019-02-07T18:23:27.926Z,55.27
2019-02-07T18:25:57.307Z,48.90
2019-02-07T18:28:26.678Z,72.40
2019-02-07T18:30:55.934Z,59.73
2019-02-07T18:33:25.309Z,84.73
2019-02-07T18:35:54.602Z,81.00
2019-02-07T18:38:24.198Z,72.10
2019-02-07T18:40:53.490Z,68.67
2019-02-07T18:43:22.737Z,134.23
2019-02-07T18:45:52.178Z,81.27
2019-02-07T18:48:21.437Z,78.53
2019-02-07T18:50:50.753Z,84.07
2019-02-07T18:53:19.981Z,78.57
2019-02-07T18:55:49.293Z,86.23
2019-02-07T18:58:18.575Z,79.67
2019-02-07T19:00:47.899Z,55.97
2019-02-07T19:03:17.215Z,58.57
2019-02-07T19:05:46.590Z,62.67
2019-02-07T19:08:15.846Z,71.87
2019-02-07T19:10:45.137Z,64.97
2019-02-07T19:13:14.425Z,57.13
2019-02-07T19:15:47.101Z,71.10
2019-02-07T19:18:16.473Z,62.03
2019-02-07T19:20:45.812Z,93.17
2019-02-07T19:23:15.121Z,94.37
2019-02-07T19:25:44.730Z,76.70
2019-02-07T19:28:14.036Z,96.60
2019-02-07T19:30:43.305Z,82.33
2019-02-07T19:33:12.621Z,74.57
2019-02-07T19:35:41.893Z,56.77
2019-02-07T19:38:11.196Z,106.30
2019-02-07T19:40:40.792Z,75.93
2019-02-07T19:43:10.072Z,114.43
2019-02-07T19:45:39.452Z,126.53
2019-02-07T19:48:08.736Z,67.57
2019-02-07T19:50:38.051Z,67.30
2019-02-07T19:53:07.340Z,71.90
2019-02-07T19:55:37.132Z,66.83
2019-02-07T19:58:06.716Z,88.73
2019-02-07T20:00:39.263Z,56.33
2019-02-07T20:03:07.420Z,44.77
2019-02-07T20:05:36.800Z,48.57
2019-02-07T20:08:06.100Z,43.53
2019-02-07T20:10:35.802Z,52.50
2019-02-07T20:13:05.328Z,57.70
2019-02-07T20:15:36.832Z,39.47
2019-02-07T20:18:07.652Z,39.27
2019-02-07T20:20:37.087Z,33.80
2019-02-07T20:23:06.471Z,30.10
2019-02-07T20:25:36.369Z,30.37
2019-02-07T20:28:05.923Z,29.90
2019-02-07T20:30:39.971Z,33.67
2019-02-07T20:33:10.201Z,29.00
2019-02-07T20:36:31.781Z,29.63
2019-02-07T20:39:01.251Z,29.60
2019-02-07T20:41:30.635Z,29.03
2019-02-07T20:44:00.003Z,26.97
2019-02-07T20:46:29.653Z,32.30
2019-02-07T20:48:58.955Z,29.90
2019-02-07T20:51:29.143Z,30.37
2019-02-07T20:53:58.423Z,34.37
2019-02-07T20:56:27.691Z,31.33
2019-02-07T20:58:57.070Z,32.97
2019-02-07T21:01:27.223Z,35.30
2019-02-07T21:03:56.927Z,31.00
2019-02-07T21:06:26.223Z,31.00
2019-02-07T21:08:55.611Z,30.13
2019-02-07T21:11:24.983Z,27.13
2019-02-07T21:13:54.292Z,28.63
2019-02-07T21:16:23.847Z,30.03
2019-02-07T21:18:53.507Z,28.47
2019-02-07T21:21:22.794Z,30.13
2019-02-07T21:23:52.054Z,32.07
2019-02-07T21:26:21.386Z,31.37
2019-02-07T21:28:50.731Z,30.80
2019-02-07T21:31:19.986Z,30.90
2019-02-07T21:33:49.458Z,30.40
2019-02-07T21:36:18.969Z,27.10
2019-02-07T21:38:48.254Z,28.83
2019-02-07T21:41:17.494Z,29.23
2019-02-07T21:43:50.010Z,28.50
2019-02-07T21:46:20.386Z,32.27
2019-02-07T21:48:49.712Z,28.23
2019-02-07T21:51:19.670Z,28.97
2019-02-07T21:53:49.046Z,31.00
2019-02-07T21:56:18.338Z,28.33
2019-02-07T21:58:47.590Z,29.13
2019-02-07T22:01:16.874Z,28.77
2019-02-07T22:03:46.384Z,27.73
2019-02-07T22:06:15.674Z,27.13
2019-02-07T22:08:44.967Z,27.90
2019-02-07T22:11:14.237Z,29.83
2019-02-07T22:13:43.517Z,29.03
2019-02-07T22:16:12.782Z,28.97
2019-02-07T22:18:42.037Z,27.43
2019-02-07T22:21:11.346Z,27.13
2019-02-07T22:23:40.701Z,28.17
2019-02-07T22:26:10.001Z,26.87
2019-02-07T22:28:39.398Z,26.77
2019-02-07T22:31:08.709Z,26.40
2019-02-07T22:33:38.021Z,26.93
2019-02-07T22:36:07.449Z,26.10
2019-02-07T22:38:36.705Z,25.27
2019-02-07T22:41:06.021Z,29.40
2019-02-07T22:43:35.350Z,25.90
2019-02-07T22:46:04.633Z,27.47
2019-02-07T22:48:33.888Z,26.30
2019-02-07T22:51:03.265Z,26.20
2019-02-07T22:53:32.773Z,26.30
2019-02-07T22:56:02.045Z,25.87
2019-02-07T22:58:31.321Z,27.80
2019-02-07T23:01:40.304Z,25.80
2019-02-07T23:04:09.997Z,25.93
2019-02-07T23:06:39.325Z,26.27
2019-02-07T23:09:15.005Z,26.17
2019-02-07T23:11:44.294Z,27.97
2019-02-07T23:14:13.656Z,26.33
2019-02-07T23:16:43.973Z,25.30
2019-02-07T23:19:13.382Z,25.73
2019-02-07T23:21:42.692Z,26.03
2019-02-07T23:24:12.117Z,25.37
2019-02-07T23:26:41.448Z,27.07
2019-02-07T23:29:10.796Z,26.80
2019-02-07T23:31:40.080Z,24.27
2019-02-07T23:34:09.388Z,26.77
2019-02-07T23:36:39.598Z,27.67
2019-02-07T23:39:10.608Z,25.53
2019-02-07T23:41:39.888Z,25.80
2019-02-07T23:44:09.483Z,26.47
2019-02-07T23:46:38.740Z,24.10
2019-02-07T23:49:08.048Z,26.33
2019-02-07T23:51:37.381Z,23.17
2019-02-07T23:54:06.664Z,24.07
2019-02-07T23:56:35.912Z,24.00
2019-02-07T23:59:05.610Z,25.57
